sensor_id;sensor_type;location;lat;lon;timestamp;pressure;altitude;pressure_sealevel;temperature;humidity
58775;BME280;44545;47.480;19.024;2023-05-25T03:13:50;100346.25;;;15.41;100.00
58775;BME280;44545;47.480;19.024;2023-05-25T03:16:53;100340.91;;;15.37;100.00
58775;BME280;44545;47.480;19.024;2023-05-25T03:19:56;100355.87;;;15.40;100.00
58775;BME280;44545;47.480;19.024;2023-05-25T03:22:59;100351.81;;;15.50;100.00
58775;BME280;44545;47.480;19.024;2023-05-25T03:26:03;100351.16;;;15.57;100.00
58775;BME280;44545;47.480;19.024;2023-05-25T03:29:06;100353.16;;;15.64;100.00
58775;BME280;44545;47.480;19.024;2023-05-25T03:32:08;100356.75;;;15.66;100.00
58775;BME280;44545;47.480;19.024;2023-05-25T03:35:11;100353.31;;;15.69;100.00
58775;BME280;44545;47.480;19.024;2023-05-25T03:38:14;100352.56;;;15.71;100.00
58775;BME280;44545;47.480;19.024;2023-05-25T03:41:16;100350.28;;;15.82;100.00
58775;BME280;44545;47.480;19.024;2023-05-25T03:44:18;100357.28;;;15.81;100.00
58775;BME280;44545;47.480;19.024;2023-05-25T03:47:21;100355.66;;;15.85;100.00
58775;BME280;44545;47.480;19.024;2023-05-25T03:50:24;100359.25;;;15.89;100.00
58775;BME280;44545;47.480;19.024;2023-05-25T03:53:26;100356.97;;;15.99;100.00
58775;BME280;44545;47.480;19.024;2023-05-25T03:56:28;100351.06;;;16.07;100.00
58775;BME280;44545;47.480;19.024;2023-05-25T03:59:31;100358.97;;;16.07;100.00
58775;BME280;44545;47.480;19.024;2023-05-25T04:02:33;100363.97;;;15.99;100.00
58775;BME280;44545;47.480;19.024;2023-05-25T04:05:36;100365.31;;;16.13;100.00
58775;BME280;44545;47.480;19.024;2023-05-25T04:08:39;100365.31;;;16.13;100.00
58775;BME280;44545;47.480;19.024;2023-05-25T04:11:45;100368.03;;;16.16;100.00
58775;BME280;44545;47.480;19.024;2023-05-25T04:14:47;100376.47;;;16.33;100.00
58775;BME280;44545;47.480;19.024;2023-05-25T04:17:50;100380.03;;;16.64;100.00
58775;BME280;44545;47.480;19.024;2023-05-25T04:20:52;100384.41;;;16.94;100.00
58775;BME280;44545;47.480;19.024;2023-05-25T04:23:57;100379.63;;;17.10;100.00
58775;BME280;44545;47.480;19.024;2023-05-25T04:26:59;100387.94;;;17.26;100.00
58775;BME280;44545;47.480;19.024;2023-05-25T04:30:03;100392.25;;;17.55;100.00
58775;BME280;44545;47.480;19.024;2023-05-25T04:33:08;100387.22;;;17.65;100.00
58775;BME280;44545;47.480;19.024;2023-05-25T04:36:16;100390.56;;;17.58;100.00
58775;BME280;44545;47.480;19.024;2023-05-25T04:39:19;100397.94;;;17.71;100.00
58775;BME280;44545;47.480;19.024;2023-05-25T04:42:22;100386.84;;;17.83;100.00
58775;BME280;44545;47.480;19.024;2023-05-25T04:45:25;100385.13;;;18.23;100.00
58775;BME280;44545;47.480;19.024;2023-05-25T04:48:28;100384.91;;;18.51;100.00
58775;BME280;44545;47.480;19.024;2023-05-25T04:51:33;100379.34;;;18.78;100.00
58775;BME280;44545;47.480;19.024;2023-05-25T04:54:37;100383.78;;;18.79;96.87
58775;BME280;44545;47.480;19.024;2023-05-25T04:57:39;100382.56;;;18.65;98.52
58775;BME280;44545;47.480;19.024;2023-05-25T05:00:42;100385.25;;;18.68;100.00
58775;BME280;44545;47.480;19.024;2023-05-25T05:03:45;100392.00;;;18.93;99.18
58775;BME280;44545;47.480;19.024;2023-05-25T05:06:48;100383.53;;;19.11;95.98
58775;BME280;44545;47.480;19.024;2023-05-25T05:09:51;100382.87;;;19.68;93.29
58775;BME280;44545;47.480;19.024;2023-05-25T05:12:53;100389.34;;;19.86;91.19
58775;BME280;44545;47.480;19.024;2023-05-25T05:15:56;100388.22;;;20.26;88.86
58775;BME280;44545;47.480;19.024;2023-05-25T05:18:59;100397.31;;;20.45;87.84
58775;BME280;44545;47.480;19.024;2023-05-25T05:22:02;100390.38;;;20.53;86.29
58775;BME280;44545;47.480;19.024;2023-05-25T05:25:05;100389.00;;;20.80;86.39
58775;BME280;44545;47.480;19.024;2023-05-25T05:28:08;100393.03;;;21.22;85.09
58775;BME280;44545;47.480;19.024;2023-05-25T05:31:11;100392.44;;;21.45;79.39
58775;BME280;44545;47.480;19.024;2023-05-25T05:34:14;100393.41;;;21.56;78.68
58775;BME280;44545;47.480;19.024;2023-05-25T05:37:17;100398.03;;;21.75;78.56
58775;BME280;44545;47.480;19.024;2023-05-25T05:40:19;100393.59;;;21.77;77.66
58775;BME280;44545;47.480;19.024;2023-05-25T05:43:22;100390.16;;;21.89;77.95
58775;BME280;44545;47.480;19.024;2023-05-25T05:46:24;100390.31;;;22.09;74.60
58775;BME280;44545;47.480;19.024;2023-05-25T05:49:28;100395.78;;;22.26;73.80
58775;BME280;44545;47.480;19.024;2023-05-25T05:52:31;100398.44;;;22.26;72.80
58775;BME280;44545;47.480;19.024;2023-05-25T05:55:34;100396.56;;;22.17;73.19
58775;BME280;44545;47.480;19.024;2023-05-25T05:58:37;100399.13;;;22.03;74.60
58775;BME280;44545;47.480;19.024;2023-05-25T06:01:40;100405.47;;;22.19;74.67
58775;BME280;44545;47.480;19.024;2023-05-25T06:04:45;100411.84;;;22.44;71.54
58775;BME280;44545;47.480;19.024;2023-05-25T06:07:47;100409.25;;;22.55;72.25
58775;BME280;44545;47.480;19.024;2023-05-25T06:10:52;100411.91;;;22.55;71.64
58775;BME280;44545;47.480;19.024;2023-05-25T06:13:55;100413.87;;;22.96;69.52
58775;BME280;44545;47.480;19.024;2023-05-25T06:16:58;100409.59;;;23.29;70.20
58775;BME280;44545;47.480;19.024;2023-05-25T06:20:01;100406.97;;;23.38;67.58
58775;BME280;44545;47.480;19.024;2023-05-25T06:23:03;100413.09;;;23.09;68.36
58775;BME280;44545;47.480;19.024;2023-05-25T06:26:06;100414.03;;;23.22;67.67
58775;BME280;44545;47.480;19.024;2023-05-25T06:29:09;100412.34;;;23.55;66.73
58775;BME280;44545;47.480;19.024;2023-05-25T06:32:12;100410.59;;;23.92;65.12
58775;BME280;44545;47.480;19.024;2023-05-25T06:35:14;100407.94;;;24.05;64.18
58775;BME280;44545;47.480;19.024;2023-05-25T06:38:22;100404.38;;;24.27;65.14
58775;BME280;44545;47.480;19.024;2023-05-25T06:41:25;100400.81;;;24.51;61.71
58775;BME280;44545;47.480;19.024;2023-05-25T06:44:29;100407.94;;;24.08;65.08
58775;BME280;44545;47.480;19.024;2023-05-25T06:47:34;100414.13;;;24.54;63.84
58775;BME280;44545;47.480;19.024;2023-05-25T06:50:37;100412.28;;;24.79;62.95
58775;BME280;44545;47.480;19.024;2023-05-25T06:53:40;100413.19;;;24.75;63.68
58775;BME280;44545;47.480;19.024;2023-05-25T06:56:43;100417.69;;;24.27;61.65
58775;BME280;44545;47.480;19.024;2023-05-25T06:59:45;100420.28;;;24.76;59.87
58775;BME280;44545;47.480;19.024;2023-05-25T07:02:47;100414.00;;;24.91;58.01
58775;BME280;44545;47.480;19.024;2023-05-25T07:05:50;100413.78;;;25.48;59.33
58775;BME280;44545;47.480;19.024;2023-05-25T07:08:52;100413.81;;;25.39;56.30
58775;BME280;44545;47.480;19.024;2023-05-25T07:11:57;100413.87;;;25.26;59.26
58775;BME280;44545;47.480;19.024;2023-05-25T07:14:59;100430.72;;;25.39;59.39
58775;BME280;44545;47.480;19.024;2023-05-25T07:18:02;100423.72;;;25.11;59.79
58775;BME280;44545;47.480;19.024;2023-05-25T07:21:05;100430.59;;;25.59;57.98
58775;BME280;44545;47.480;19.024;2023-05-25T07:24:08;100429.66;;;25.68;55.23
58775;BME280;44545;47.480;19.024;2023-05-25T07:27:11;100427.50;;;26.21;55.11
58775;BME280;44545;47.480;19.024;2023-05-25T07:30:14;100428.31;;;26.27;51.44
58775;BME280;44545;47.480;19.024;2023-05-25T07:33:17;100429.91;;;26.47;51.07
58775;BME280;44545;47.480;19.024;2023-05-25T07:36:19;100421.84;;;26.51;49.35
58775;BME280;44545;47.480;19.024;2023-05-25T07:39:22;100435.94;;;26.70;49.92
58775;BME280;44545;47.480;19.024;2023-05-25T07:42:24;100426.25;;;26.58;50.56
58775;BME280;44545;47.480;19.024;2023-05-25T07:45:27;100423.84;;;26.28;51.57
58775;BME280;44545;47.480;19.024;2023-05-25T07:48:29;100429.75;;;26.64;52.34
58775;BME280;44545;47.480;19.024;2023-05-25T07:51:32;100432.28;;;26.77;50.63
58775;BME280;44545;47.480;19.024;2023-05-25T07:54:38;100431.22;;;26.92;49.11
58775;BME280;44545;47.480;19.024;2023-05-25T07:57:41;100433.13;;;26.81;48.06
58775;BME280;44545;47.480;19.024;2023-05-25T08:00:44;100433.59;;;26.35;49.18
58775;BME280;44545;47.480;19.024;2023-05-25T08:03:46;100439.28;;;25.98;50.99
58775;BME280;44545;47.480;19.024;2023-05-25T08:06:51;100434.66;;;26.19;50.77
58775;BME280;44545;47.480;19.024;2023-05-25T08:09:53;100429.22;;;26.26;47.12
58775;BME280;44545;47.480;19.024;2023-05-25T08:12:56;100429.63;;;26.76;47.61
58775;BME280;44545;47.480;19.024;2023-05-25T08:16:00;100433.91;;;26.92;46.67
58775;BME280;44545;47.480;19.024;2023-05-25T08:19:02;100436.59;;;26.91;45.98
58775;BME280;44545;47.480;19.024;2023-05-25T08:22:05;100431.62;;;27.33;45.73
58775;BME280;44545;47.480;19.024;2023-05-25T08:25:08;100423.09;;;27.68;47.00
58775;BME280;44545;47.480;19.024;2023-05-25T08:28:10;100436.34;;;27.12;46.01
58775;BME280;44545;47.480;19.024;2023-05-25T08:31:13;100436.38;;;27.08;46.79
58775;BME280;44545;47.480;19.024;2023-05-25T08:34:15;100433.53;;;27.86;45.84
58775;BME280;44545;47.480;19.024;2023-05-25T08:37:18;100435.97;;;28.02;44.56
58775;BME280;44545;47.480;19.024;2023-05-25T08:40:25;100430.59;;;28.02;43.88
58775;BME280;44545;47.480;19.024;2023-05-25T08:43:29;100445.34;;;27.03;46.17
58775;BME280;44545;47.480;19.024;2023-05-25T08:46:32;100437.81;;;27.36;46.14
58775;BME280;44545;47.480;19.024;2023-05-25T08:49:38;100447.66;;;27.36;46.15
58775;BME280;44545;47.480;19.024;2023-05-25T08:52:44;100443.31;;;27.27;44.51
58775;BME280;44545;47.480;19.024;2023-05-25T08:55:49;100437.78;;;28.00;44.59
58775;BME280;44545;47.480;19.024;2023-05-25T08:59:05;100438.06;;;28.84;44.51
58775;BME280;44545;47.480;19.024;2023-05-25T09:02:20;100439.53;;;29.83;39.44
58775;BME280;44545;47.480;19.024;2023-05-25T09:05:23;100427.09;;;30.16;39.86
58775;BME280;44545;47.480;19.024;2023-05-25T09:08:26;100426.78;;;31.25;37.76
58775;BME280;44545;47.480;19.024;2023-05-25T09:11:30;100411.19;;;30.41;41.71
58775;BME280;44545;47.480;19.024;2023-05-25T09:14:43;100433.81;;;31.29;38.19
58775;BME280;44545;47.480;19.024;2023-05-25T09:17:49;100426.59;;;31.87;36.18
58775;BME280;44545;47.480;19.024;2023-05-25T09:20:51;100437.97;;;33.00;33.98
58775;BME280;44545;47.480;19.024;2023-05-25T09:23:55;100434.31;;;32.53;34.13
58775;BME280;44545;47.480;19.024;2023-05-25T09:26:58;100429.75;;;32.80;34.74
58775;BME280;44545;47.480;19.024;2023-05-25T09:30:00;100425.44;;;30.77;37.33
58775;BME280;44545;47.480;19.024;2023-05-25T09:33:13;100422.34;;;29.90;40.15
58775;BME280;44545;47.480;19.024;2023-05-25T09:36:18;100425.56;;;27.80;43.91
58775;BME280;44545;47.480;19.024;2023-05-25T09:39:24;100443.28;;;26.45;46.13
58775;BME280;44545;47.480;19.024;2023-05-25T09:42:27;100438.59;;;26.72;46.29
58775;BME280;44545;47.480;19.024;2023-05-25T09:45:29;100433.09;;;29.10;41.12
58775;BME280;44545;47.480;19.024;2023-05-25T09:48:32;100454.78;;;33.79;32.83
58775;BME280;44545;47.480;19.024;2023-05-25T09:51:35;100446.84;;;33.97;32.33
58775;BME280;44545;47.480;19.024;2023-05-25T09:54:38;100414.66;;;32.23;36.20
58775;BME280;44545;47.480;19.024;2023-05-25T09:57:42;100428.66;;;29.89;40.06
58775;BME280;44545;47.480;19.024;2023-05-25T10:00:44;100436.28;;;28.36;42.89
58775;BME280;44545;47.480;19.024;2023-05-25T10:03:48;100444.41;;;27.06;45.14
58775;BME280;44545;47.480;19.024;2023-05-25T10:07:05;100449.81;;;26.15;49.27
58775;BME280;44545;47.480;19.024;2023-05-25T10:10:09;100444.78;;;25.69;50.60
58775;BME280;44545;47.480;19.024;2023-05-25T10:13:20;100440.91;;;27.02;47.17
58775;BME280;44545;47.480;19.024;2023-05-25T10:16:25;100435.69;;;28.68;43.85
58775;BME280;44545;47.480;19.024;2023-05-25T10:19:31;100438.09;;;27.15;47.70
58775;BME280;44545;47.480;19.024;2023-05-25T10:23:00;100439.69;;;26.48;48.46
58775;BME280;44545;47.480;19.024;2023-05-25T10:26:06;100439.38;;;28.12;44.48
58775;BME280;44545;47.480;19.024;2023-05-25T10:29:11;100431.69;;;27.27;46.83
58775;BME280;44545;47.480;19.024;2023-05-25T10:32:17;100428.31;;;26.29;48.94
58775;BME280;44545;47.480;19.024;2023-05-25T10:35:20;100435.75;;;25.90;49.74
58775;BME280;44545;47.480;19.024;2023-05-25T10:38:24;100419.97;;;29.37;41.30
58775;BME280;44545;47.480;19.024;2023-05-25T10:41:27;100456.81;;;35.21;31.46
58775;BME280;44545;47.480;19.024;2023-05-25T10:44:30;100492.84;;;38.65;26.35
58775;BME280;44545;47.480;19.024;2023-05-25T10:47:35;100519.50;;;40.71;23.26
58775;BME280;44545;47.480;19.024;2023-05-25T10:50:38;100366.03;;;35.10;31.21
58775;BME280;44545;47.480;19.024;2023-05-25T10:53:44;100392.56;;;30.33;37.47
58775;BME280;44545;47.480;19.024;2023-05-25T10:57:16;100411.81;;;30.83;36.98
58775;BME280;44545;47.480;19.024;2023-05-25T11:00:19;100444.44;;;34.74;31.15
58775;BME280;44545;47.480;19.024;2023-05-25T11:03:23;100388.88;;;33.36;34.39
58775;BME280;44545;47.480;19.024;2023-05-25T11:09:57;100409.81;;;28.16;44.96
58775;BME280;44545;47.480;19.024;2023-05-25T11:13:20;100409.34;;;26.53;46.82
58775;BME280;44545;47.480;19.024;2023-05-25T11:16:30;100410.84;;;25.86;49.62
58775;BME280;44545;47.480;19.024;2023-05-25T11:19:46;100405.50;;;25.85;51.98
58775;BME280;44545;47.480;19.024;2023-05-25T11:22:52;100402.94;;;26.70;51.22
58775;BME280;44545;47.480;19.024;2023-05-25T11:26:03;100409.81;;;26.92;47.31
58775;BME280;44545;47.480;19.024;2023-05-25T11:29:14;100403.13;;;26.48;50.04
58775;BME280;44545;47.480;19.024;2023-05-25T11:32:17;100402.50;;;26.26;49.80
58775;BME280;44545;47.480;19.024;2023-05-25T11:35:20;100400.78;;;26.19;48.37
58775;BME280;44545;47.480;19.024;2023-05-25T11:38:23;100385.16;;;25.65;50.04
58775;BME280;44545;47.480;19.024;2023-05-25T11:41:29;100390.63;;;25.47;51.14
58775;BME280;44545;47.480;19.024;2023-05-25T11:44:36;100388.66;;;25.73;52.41
58775;BME280;44545;47.480;19.024;2023-05-25T11:47:40;100384.28;;;26.64;48.94
58775;BME280;44545;47.480;19.024;2023-05-25T11:50:42;100372.66;;;26.68;48.16
58775;BME280;44545;47.480;19.024;2023-05-25T11:53:45;100369.06;;;27.38;49.79
58775;BME280;44545;47.480;19.024;2023-05-25T11:56:48;100369.78;;;26.85;45.87
58775;BME280;44545;47.480;19.024;2023-05-25T11:59:58;100352.63;;;27.63;47.56
58775;BME280;44545;47.480;19.024;2023-05-25T12:03:03;100345.03;;;28.38;46.79
58775;BME280;44545;47.480;19.024;2023-05-25T12:06:07;100344.81;;;28.02;44.25
58775;BME280;44545;47.480;19.024;2023-05-25T12:09:11;100344.94;;;28.44;44.17
58775;BME280;44545;47.480;19.024;2023-05-25T12:12:14;100347.69;;;28.39;45.40
58775;BME280;44545;47.480;19.024;2023-05-25T12:15:22;100342.16;;;28.48;43.87
58775;BME280;44545;47.480;19.024;2023-05-25T12:18:28;100350.41;;;27.90;46.24
58775;BME280;44545;47.480;19.024;2023-05-25T12:21:30;100334.12;;;27.44;45.59
58775;BME280;44545;47.480;19.024;2023-05-25T12:24:33;100345.25;;;27.15;46.41
58775;BME280;44545;47.480;19.024;2023-05-25T12:27:36;100333.75;;;27.10;47.17
58775;BME280;44545;47.480;19.024;2023-05-25T12:30:39;100336.06;;;27.36;46.13
58775;BME280;44545;47.480;19.024;2023-05-25T12:33:41;100344.72;;;26.92;48.55
58775;BME280;44545;47.480;19.024;2023-05-25T12:36:51;100350.38;;;26.66;48.70
58775;BME280;44545;47.480;19.024;2023-05-25T12:39:54;100355.28;;;26.22;49.32
58775;BME280;44545;47.480;19.024;2023-05-25T12:42:59;100344.25;;;25.59;50.52
58775;BME280;44545;47.480;19.024;2023-05-25T12:46:02;100347.97;;;25.36;51.70
58775;BME280;44545;47.480;19.024;2023-05-25T12:49:29;100339.16;;;25.22;52.92
58775;BME280;44545;47.480;19.024;2023-05-25T12:55:36;100342.66;;;25.32;53.24
58775;BME280;44545;47.480;19.024;2023-05-25T12:58:39;100336.41;;;25.34;52.43
58775;BME280;44545;47.480;19.024;2023-05-25T13:01:42;100333.69;;;25.42;55.49
58775;BME280;44545;47.480;19.024;2023-05-25T13:04:44;100327.50;;;25.40;51.05
58775;BME280;44545;47.480;19.024;2023-05-25T13:07:47;100323.09;;;25.33;51.07
58775;BME280;44545;47.480;19.024;2023-05-25T13:10:49;100316.59;;;25.64;51.94
58775;BME280;44545;47.480;19.024;2023-05-25T13:13:52;100318.25;;;25.81;52.13
58775;BME280;44545;47.480;19.024;2023-05-25T13:16:55;100315.72;;;25.65;53.27
58775;BME280;44545;47.480;19.024;2023-05-25T13:19:59;100308.03;;;25.25;54.26
58775;BME280;44545;47.480;19.024;2023-05-25T13:23:01;100312.44;;;25.26;53.96
58775;BME280;44545;47.480;19.024;2023-05-25T13:26:04;100308.91;;;25.24;53.89
58775;BME280;44545;47.480;19.024;2023-05-25T13:29:07;100303.12;;;25.81;52.02
58775;BME280;44545;47.480;19.024;2023-05-25T13:32:10;100292.97;;;26.17;50.03
58775;BME280;44545;47.480;19.024;2023-05-25T13:35:12;100284.72;;;26.37;52.14
58775;BME280;44545;47.480;19.024;2023-05-25T13:38:36;100285.56;;;26.42;50.89
58775;BME280;44545;47.480;19.024;2023-05-25T13:41:39;100297.56;;;26.03;51.08
58775;BME280;44545;47.480;19.024;2023-05-25T13:44:42;100281.28;;;26.29;50.07
58775;BME280;44545;47.480;19.024;2023-05-25T13:47:44;100277.03;;;26.09;51.63
58775;BME280;44545;47.480;19.024;2023-05-25T13:50:47;100272.16;;;25.57;51.96
58775;BME280;44545;47.480;19.024;2023-05-25T13:53:50;100273.28;;;25.30;51.95
58775;BME280;44545;47.480;19.024;2023-05-25T13:56:52;100261.78;;;25.16;52.98
58775;BME280;44545;47.480;19.024;2023-05-25T13:59:55;100265.31;;;25.24;51.78
58775;BME280;44545;47.480;19.024;2023-05-25T14:02:57;100261.53;;;25.52;51.01
58775;BME280;44545;47.480;19.024;2023-05-25T14:06:00;100254.50;;;25.39;50.97
58775;BME280;44545;47.480;19.024;2023-05-25T14:09:02;100249.84;;;25.66;51.93
58775;BME280;44545;47.480;19.024;2023-05-25T14:12:05;100255.78;;;25.99;50.65
58775;BME280;44545;47.480;19.024;2023-05-25T14:15:08;100253.09;;;25.99;50.40
58775;BME280;44545;47.480;19.024;2023-05-25T14:18:10;100256.78;;;25.84;51.20
58775;BME280;44545;47.480;19.024;2023-05-25T14:21:13;100256.56;;;26.08;51.37
58775;BME280;44545;47.480;19.024;2023-05-25T14:24:15;100246.38;;;26.41;51.36
58775;BME280;44545;47.480;19.024;2023-05-25T14:27:17;100242.66;;;26.54;48.96
58775;BME280;44545;47.480;19.024;2023-05-25T14:30:22;100241.97;;;26.35;48.91
58775;BME280;44545;47.480;19.024;2023-05-25T14:33:25;100237.63;;;26.27;50.42
58775;BME280;44545;47.480;19.024;2023-05-25T14:36:27;100242.97;;;26.27;53.27
58775;BME280;44545;47.480;19.024;2023-05-25T14:39:29;100241.50;;;26.01;49.99
58775;BME280;44545;47.480;19.024;2023-05-25T14:42:32;100229.97;;;25.94;52.12
58775;BME280;44545;47.480;19.024;2023-05-25T14:45:34;100236.38;;;25.78;52.76
58775;BME280;44545;47.480;19.024;2023-05-25T14:48:37;100243.81;;;25.44;53.28
58775;BME280;44545;47.480;19.024;2023-05-25T14:51:39;100237.84;;;25.08;52.95
58775;BME280;44545;47.480;19.024;2023-05-25T14:54:41;100229.84;;;25.08;53.98
58775;BME280;44545;47.480;19.024;2023-05-25T14:57:45;100232.38;;;25.26;52.02
58775;BME280;44545;47.480;19.024;2023-05-25T15:00:48;100237.59;;;25.43;51.92
58775;BME280;44545;47.480;19.024;2023-05-25T15:03:50;100228.81;;;25.32;51.03
58775;BME280;44545;47.480;19.024;2023-05-25T15:06:53;100232.22;;;25.46;51.14
58775;BME280;44545;47.480;19.024;2023-05-25T15:09:55;100226.03;;;25.43;53.65
58775;BME280;44545;47.480;19.024;2023-05-25T15:12:58;100226.75;;;25.59;53.52
58775;BME280;44545;47.480;19.024;2023-05-25T15:16:00;100224.84;;;25.70;51.12
58775;BME280;44545;47.480;19.024;2023-05-25T15:19:03;100232.09;;;25.57;51.32
